createdAt,value
2022-10-17T00:02:07.820Z,100964.84
2022-10-17T00:07:05.813Z,100972.44
2022-10-17T00:09:32.343Z,100977.94
2022-10-17T00:11:58.936Z,100978.63
2022-10-17T00:14:25.420Z,100971.94
2022-10-17T00:16:51.871Z,100976.28
2022-10-17T00:19:18.298Z,100989.09
2022-10-17T00:21:44.765Z,100982.84
2022-10-17T00:24:11.262Z,100983.69
2022-10-17T00:26:37.941Z,100989.06
2022-10-17T00:29:04.666Z,100991.28
2022-10-17T00:31:31.274Z,100986.00
2022-10-17T00:33:57.762Z,100984.88
2022-10-17T00:36:25.971Z,100982.75
2022-10-17T00:38:55.953Z,100991.78
2022-10-17T00:41:31.086Z,100997.50
2022-10-17T00:44:03.982Z,100981.53
2022-10-17T00:46:38.551Z,100984.56
2022-10-17T00:49:08.744Z,100991.47
2022-10-17T00:51:40.926Z,100990.50
2022-10-17T00:54:09.496Z,101001.09
2022-10-17T00:56:36.854Z,100991.88
2022-10-17T00:59:03.584Z,100994.63
2022-10-17T01:01:30.508Z,100984.69
2022-10-17T01:03:57.010Z,100990.00
2022-10-17T01:06:23.523Z,100999.19
2022-10-17T01:08:50.082Z,100994.19
2022-10-17T01:11:35.048Z,100996.47
2022-10-17T01:14:15.634Z,100995.34
2022-10-17T01:16:52.047Z,101010.16
2022-10-17T01:20:00.176Z,101006.53
2022-10-17T01:22:33.701Z,100997.50
2022-10-17T01:25:15.030Z,101002.22
2022-10-17T01:27:51.202Z,101003.53
2022-10-17T01:30:26.431Z,101009.13
2022-10-17T01:33:25.540Z,101002.56
2022-10-17T01:36:06.609Z,100997.63
2022-10-17T01:39:00.913Z,100993.13
2022-10-17T01:41:35.783Z,100991.94
2022-10-17T01:44:12.670Z,100994.88
2022-10-17T01:46:48.913Z,100998.00
2022-10-17T01:49:18.444Z,100998.34
2022-10-17T01:51:52.703Z,101001.16
2022-10-17T01:54:27.407Z,100993.94
2022-10-17T01:56:58.597Z,100986.19
2022-10-17T01:59:38.751Z,100986.28
2022-10-17T02:02:06.688Z,100987.97
2022-10-17T02:04:34.584Z,100991.53
2022-10-17T02:07:12.165Z,100984.66
2022-10-17T02:09:39.468Z,100989.13
2022-10-17T02:12:18.192Z,100984.63
2022-10-17T02:15:16.239Z,100975.75
2022-10-17T02:18:15.794Z,100984.44
2022-10-17T02:21:02.606Z,100993.84
2022-10-17T02:23:56.201Z,100987.69
2022-10-17T02:26:31.437Z,100989.78
2022-10-17T02:29:00.896Z,100988.66
2022-10-17T02:31:56.035Z,100989.69
2022-10-17T02:34:45.245Z,100995.69
2022-10-17T02:37:15.186Z,101001.56
2022-10-17T02:39:43.887Z,100986.06
2022-10-17T02:42:13.117Z,100993.56
2022-10-17T02:44:42.285Z,100995.81
2022-10-17T02:47:20.418Z,100994.16
2022-10-17T02:49:52.399Z,101001.34
2022-10-17T02:52:39.796Z,101004.06
2022-10-17T02:55:16.477Z,101006.91
2022-10-17T02:57:50.570Z,101005.78
2022-10-17T03:00:18.642Z,100999.91
2022-10-17T03:02:50.549Z,100999.91
2022-10-17T03:05:21.459Z,101010.47
2022-10-17T03:07:48.023Z,101002.53
2022-10-17T03:10:14.652Z,101004.16
2022-10-17T03:12:41.528Z,101004.00
2022-10-17T03:15:08.757Z,101010.69
2022-10-17T03:17:36.201Z,101011.50
2022-10-17T03:20:03.936Z,101008.97
2022-10-17T03:22:31.065Z,101005.94
2022-10-17T03:24:58.342Z,101007.84
2022-10-17T03:27:25.300Z,101010.13
2022-10-17T03:29:51.890Z,101008.34
2022-10-17T03:32:18.372Z,101017.28
2022-10-17T03:34:44.840Z,101028.56
2022-10-17T03:37:11.367Z,101025.66
2022-10-17T03:39:37.854Z,101029.50
2022-10-17T03:42:04.330Z,101031.72
2022-10-17T03:44:30.782Z,101036.69
2022-10-17T03:46:57.767Z,101036.50
2022-10-17T03:49:24.314Z,101040.00
2022-10-17T03:51:50.755Z,101045.31
2022-10-17T03:54:17.206Z,101041.94
2022-10-17T03:56:43.882Z,101042.59
2022-10-17T03:59:14.162Z,101043.59
2022-10-17T04:01:40.856Z,101051.94
2022-10-17T04:04:07.988Z,101045.41
2022-10-17T04:06:35.304Z,101051.66
2022-10-17T04:09:02.326Z,101053.59
2022-10-17T04:11:28.956Z,101045.69
2022-10-17T04:13:57.133Z,101052.84
2022-10-17T04:16:23.982Z,101055.63
2022-10-17T04:18:55.389Z,101050.03
2022-10-17T04:21:23.007Z,101051.22
2022-10-17T04:23:53.136Z,101051.19
2022-10-17T04:26:19.594Z,101059.63
2022-10-17T04:28:46.110Z,101048.69
2022-10-17T04:31:14.492Z,101059.78
2022-10-17T04:33:41.756Z,101057.88
2022-10-17T04:36:11.980Z,101053.97
2022-10-17T04:38:38.823Z,101063.72
2022-10-17T04:41:07.964Z,101058.59
2022-10-17T04:43:36.706Z,101064.81
2022-10-17T04:46:07.883Z,101073.72
2022-10-17T04:48:34.583Z,101075.59
2022-10-17T04:51:04.701Z,101071.53
2022-10-17T04:53:33.361Z,101066.72
2022-10-17T04:56:00.128Z,101072.56
2022-10-17T04:58:29.666Z,101075.38
2022-10-17T05:00:56.732Z,101074.88
2022-10-17T05:03:23.298Z,101073.19
2022-10-17T05:05:49.759Z,101075.84
2022-10-17T05:08:16.371Z,101068.78
2022-10-17T05:10:44.701Z,101076.97
2022-10-17T05:13:11.856Z,101084.19
2022-10-17T05:15:38.457Z,101085.16
2022-10-17T05:18:06.653Z,101083.22
2022-10-17T05:20:33.367Z,101085.03
2022-10-17T05:23:00.160Z,101083.22
2022-10-17T05:25:26.677Z,101085.66
2022-10-17T05:27:54.068Z,101086.88
2022-10-17T05:30:20.989Z,101084.44
2022-10-17T05:32:47.509Z,101086.88
2022-10-17T05:35:14.170Z,101085.00
2022-10-17T05:37:54.422Z,101087.88
2022-10-17T05:40:20.978Z,101083.94
2022-10-17T05:42:48.608Z,101092.56
2022-10-17T05:45:15.538Z,101082.78
2022-10-17T05:47:42.209Z,101100.66
2022-10-17T05:50:20.855Z,101102.81
2022-10-17T05:52:47.434Z,101085.44
2022-10-17T05:55:13.976Z,101085.44
2022-10-17T05:57:40.506Z,101092.44
2022-10-17T06:00:07.544Z,101087.47
2022-10-17T06:02:34.170Z,101085.78
2022-10-17T06:05:00.871Z,101090.84
2022-10-17T06:07:29.906Z,101090.84
2022-10-17T06:09:57.968Z,101089.72
2022-10-17T06:12:25.180Z,101098.03
2022-10-17T06:14:51.660Z,101093.50
2022-10-17T06:17:18.122Z,101096.50
2022-10-17T06:19:45.192Z,101102.03
2022-10-17T06:22:11.874Z,101104.00
2022-10-17T06:24:38.398Z,101109.16
2022-10-17T06:27:09.449Z,101108.41
2022-10-17T06:29:39.128Z,101108.97
2022-10-17T06:32:08.604Z,101113.25
2022-10-17T06:34:37.788Z,101122.97
2022-10-17T06:37:04.333Z,101115.88
2022-10-17T06:39:33.807Z,101124.56
2022-10-17T06:42:01.007Z,101126.66
2022-10-17T06:44:31.478Z,101123.16
2022-10-17T06:46:59.544Z,101129.75
2022-10-17T06:49:27.078Z,101134.34
2022-10-17T06:51:53.948Z,101136.28
2022-10-17T06:54:20.525Z,101136.16
2022-10-17T06:56:47.034Z,101137.94
2022-10-17T06:59:15.471Z,101146.78
2022-10-17T07:01:46.048Z,101145.88
2022-10-17T07:04:13.797Z,101152.03
2022-10-17T07:06:40.650Z,101147.25
2022-10-17T07:09:07.133Z,101149.19
2022-10-17T07:11:35.102Z,101143.84
2022-10-17T07:14:02.457Z,101148.09
2022-10-17T07:16:29.350Z,101149.25
2022-10-17T07:18:56.157Z,101146.94
2022-10-17T07:21:22.803Z,101141.59
2022-10-17T07:23:49.582Z,101151.47
2022-10-17T07:26:17.510Z,101150.38
2022-10-17T07:28:45.986Z,101150.66
2022-10-17T07:31:16.136Z,101166.38
2022-10-17T07:36:12.003Z,101173.00
2022-10-17T07:38:39.194Z,101175.97
2022-10-17T07:41:08.583Z,101177.41
2022-10-17T07:43:38.908Z,101175.66
2022-10-17T07:46:06.269Z,101172.38
2022-10-17T07:48:32.858Z,101190.75
2022-10-17T07:51:02.713Z,101182.66
2022-10-17T07:53:29.312Z,101179.84
2022-10-17T07:55:55.762Z,101187.84
2022-10-17T07:58:22.298Z,101191.94
2022-10-17T08:00:49.370Z,101196.47
2022-10-17T08:03:17.489Z,101194.03
2022-10-17T08:05:43.967Z,101196.16
2022-10-17T08:08:10.464Z,101180.63
2022-10-17T08:10:37.075Z,101189.97
2022-10-17T08:13:03.591Z,101196.91
2022-10-17T08:15:32.070Z,101193.06
2022-10-17T08:17:59.209Z,101197.94
2022-10-17T08:20:26.357Z,101182.94
2022-10-17T08:22:55.575Z,101163.88
2022-10-17T08:25:22.738Z,101166.38
2022-10-17T08:27:49.494Z,101174.75
2022-10-17T08:30:16.634Z,101186.16
2022-10-17T08:32:43.633Z,101182.66
2022-10-17T08:35:10.324Z,101187.28
2022-10-17T08:37:36.905Z,101183.63
2022-10-17T08:40:04.135Z,101185.00
2022-10-17T08:42:49.100Z,101196.22
2022-10-17T08:45:27.477Z,101194.25
2022-10-17T08:48:12.459Z,101199.78
2022-10-17T08:50:53.086Z,101184.94
2022-10-17T08:53:22.485Z,101185.81
2022-10-17T08:55:51.411Z,101190.91
2022-10-17T08:58:24.187Z,101183.75
2022-10-17T09:01:12.048Z,101182.41
2022-10-17T09:04:02.107Z,101179.81
2022-10-17T09:06:38.482Z,101169.38
2022-10-17T09:09:34.057Z,101169.59
2022-10-17T09:12:34.421Z,101176.44
2022-10-17T09:15:29.127Z,101176.28
2022-10-17T09:18:05.062Z,101184.69
2022-10-17T09:20:36.765Z,101193.34
2022-10-17T09:23:15.570Z,101188.97
2022-10-17T09:25:50.482Z,101198.91
2022-10-17T09:28:31.628Z,101201.84
2022-10-17T09:31:03.153Z,101212.66
2022-10-17T09:33:53.759Z,101204.47
2022-10-17T09:36:28.662Z,101204.72
2022-10-17T09:39:19.295Z,101202.50
2022-10-17T09:41:55.859Z,101205.91
2022-10-17T09:44:34.213Z,101198.31
2022-10-17T09:47:18.354Z,101209.16
2022-10-17T09:49:47.401Z,101215.06
2022-10-17T09:52:30.121Z,101209.53
2022-10-17T09:55:04.398Z,101207.25
2022-10-17T09:57:57.885Z,101203.88
2022-10-17T10:00:36.445Z,101216.88
2022-10-17T10:03:25.699Z,101215.69
2022-10-17T10:06:16.907Z,101218.06
2022-10-17T10:08:58.534Z,101226.81
2022-10-17T10:11:49.853Z,101232.28
2022-10-17T10:14:35.589Z,101227.66
2022-10-17T10:17:07.581Z,101230.72
2022-10-17T10:19:36.706Z,101225.31
2022-10-17T10:22:03.224Z,101220.53
2022-10-17T10:24:31.161Z,101223.91
2022-10-17T10:27:01.426Z,101225.47
2022-10-17T10:29:41.591Z,101229.22
2022-10-17T10:32:24.563Z,101224.72
2022-10-17T10:35:20.757Z,101232.78
2022-10-17T10:37:56.275Z,101226.66
2022-10-17T10:40:32.949Z,101224.44
2022-10-17T10:43:05.088Z,101233.22
2022-10-17T10:45:53.347Z,101233.25
2022-10-17T10:48:30.227Z,101218.22
2022-10-17T10:51:05.259Z,101222.03
2022-10-17T10:53:35.555Z,101234.94
2022-10-17T10:56:43.736Z,101232.88
2022-10-17T10:59:20.199Z,101237.31
2022-10-17T11:02:15.001Z,101226.81
2022-10-17T11:05:04.222Z,101228.16
2022-10-17T11:07:45.664Z,101237.13
2022-10-17T11:10:19.709Z,101226.53
2022-10-17T11:12:49.327Z,101234.00
2022-10-17T11:15:36.544Z,101229.13
2022-10-17T11:18:06.397Z,101226.81
2022-10-17T11:20:51.202Z,101233.13
2022-10-17T11:23:24.000Z,101240.53
2022-10-17T11:25:52.628Z,101243.00
2022-10-17T11:28:21.569Z,101242.28
2022-10-17T11:31:02.386Z,101243.84
2022-10-17T11:33:51.003Z,101247.41
2022-10-17T11:36:21.226Z,101243.84
2022-10-17T11:38:52.567Z,101240.50
2022-10-17T11:41:27.009Z,101232.28
2022-10-17T11:44:02.999Z,101234.78
2022-10-17T11:46:30.288Z,101231.50
2022-10-17T11:49:07.477Z,101230.88
2022-10-17T11:52:03.259Z,101229.06
2022-10-17T11:54:43.320Z,101245.13
2022-10-17T11:57:28.465Z,101240.47
2022-10-17T12:00:18.465Z,101237.81
2022-10-17T12:02:53.135Z,101236.06
2022-10-17T12:05:26.875Z,101234.22
2022-10-17T12:08:09.342Z,101233.53
2022-10-17T12:10:47.835Z,101234.22
2022-10-17T12:13:29.490Z,101232.84
2022-10-17T12:15:57.118Z,101231.09
2022-10-17T12:18:27.210Z,101229.69
2022-10-17T12:21:00.834Z,101233.72
2022-10-17T12:23:29.145Z,101220.13
2022-10-17T12:26:03.262Z,101222.13
2022-10-17T12:28:33.597Z,101211.47
2022-10-17T12:31:17.546Z,101213.41
2022-10-17T12:33:53.068Z,101232.28
2022-10-17T12:36:22.249Z,101224.28
2022-10-17T12:38:51.331Z,101228.41
2022-10-17T12:41:37.766Z,101226.38
2022-10-17T12:44:13.126Z,101221.19
2022-10-17T12:46:56.509Z,101224.13
2022-10-17T12:49:45.579Z,101221.66
2022-10-17T12:52:35.140Z,101227.94
2022-10-17T12:55:12.223Z,101231.84
2022-10-17T12:58:03.806Z,101238.72
2022-10-17T13:01:05.299Z,101234.38
2022-10-17T13:03:44.233Z,101234.94
2022-10-17T13:06:22.831Z,101233.28
2022-10-17T13:09:05.483Z,101235.75
2022-10-17T13:11:35.354Z,101236.50
2022-10-17T13:14:04.462Z,101229.75
2022-10-17T13:16:39.137Z,101234.84
2022-10-17T13:19:17.485Z,101234.50
2022-10-17T13:22:00.973Z,101235.28
2022-10-17T13:24:36.038Z,101220.59
2022-10-17T13:27:03.834Z,101229.91
2022-10-17T13:29:32.735Z,101232.13
2022-10-17T13:32:01.458Z,101236.66
2022-10-17T13:34:28.763Z,101235.13
2022-10-17T13:36:57.862Z,101237.28
2022-10-17T13:39:44.820Z,101243.72
2022-10-17T13:42:28.280Z,101249.88
2022-10-17T13:44:56.050Z,101245.13
2022-10-17T13:47:41.281Z,101247.19
2022-10-17T13:50:26.394Z,101244.13
2022-10-17T13:53:26.373Z,101247.75
2022-10-17T13:56:09.765Z,101248.13
2022-10-17T13:58:50.725Z,101257.59
2022-10-17T14:01:18.946Z,101255.31
2022-10-17T14:03:49.031Z,101254.13
2022-10-17T14:06:24.142Z,101248.16
2022-10-17T14:09:04.556Z,101245.13
2022-10-17T14:11:38.695Z,101259.59
2022-10-17T14:14:08.334Z,101251.34
2022-10-17T14:16:40.733Z,101263.63
2022-10-17T14:19:23.102Z,101258.75
2022-10-17T14:21:56.999Z,101272.13
2022-10-17T14:24:23.453Z,101260.56
2022-10-17T14:26:52.493Z,101264.53
2022-10-17T14:29:29.859Z,101266.81
2022-10-17T14:32:05.521Z,101272.03
2022-10-17T14:34:35.517Z,101272.72
2022-10-17T14:37:08.331Z,101275.03
2022-10-17T14:39:34.904Z,101263.19
2022-10-17T14:42:04.414Z,101274.22
2022-10-17T14:44:34.276Z,101272.97
2022-10-17T14:47:18.207Z,101268.31
2022-10-17T14:49:51.989Z,101278.13
2022-10-17T14:52:19.060Z,101275.09
2022-10-17T14:54:47.969Z,101287.44
2022-10-17T14:57:26.804Z,101286.16
2022-10-17T14:59:56.067Z,101293.91
2022-10-17T15:02:27.761Z,101290.31
2022-10-17T15:04:55.093Z,101293.53
2022-10-17T15:07:22.337Z,101291.94
2022-10-17T15:09:51.795Z,101300.94
2022-10-17T15:12:23.439Z,101298.13
2022-10-17T15:14:51.594Z,101294.97
2022-10-17T15:17:20.945Z,101302.81
2022-10-17T15:19:48.420Z,101301.97
2022-10-17T15:22:16.179Z,101312.44
2022-10-17T15:24:42.817Z,101303.56
2022-10-17T15:27:24.012Z,101314.56
2022-10-17T15:29:51.605Z,101315.84
2022-10-17T15:32:18.604Z,101314.44
2022-10-17T15:34:45.187Z,101308.53
2022-10-17T15:37:20.690Z,101302.03
2022-10-17T15:39:54.057Z,101307.91
2022-10-17T15:42:23.172Z,101314.22
2022-10-17T15:44:50.209Z,101318.09
2022-10-17T15:47:36.118Z,101317.75
2022-10-17T15:50:03.651Z,101311.50
2022-10-17T15:52:30.291Z,101314.06
2022-10-17T15:54:59.511Z,101307.13
2022-10-17T15:57:33.815Z,101310.06
2022-10-17T16:00:00.427Z,101314.06
2022-10-17T16:02:27.834Z,101306.69
2022-10-17T16:04:54.302Z,101312.09
2022-10-17T16:07:21.539Z,101314.34
2022-10-17T16:09:48.207Z,101318.56
2022-10-17T16:12:18.167Z,101318.06
2022-10-17T16:14:44.923Z,101316.53
2022-10-17T16:17:15.899Z,101330.19
2022-10-17T16:19:42.902Z,101326.41
2022-10-17T16:22:24.193Z,101327.75
2022-10-17T16:24:50.767Z,101329.09
2022-10-17T16:27:17.250Z,101340.69
2022-10-17T16:29:43.679Z,101346.53
2022-10-17T16:32:10.355Z,101346.13
2022-10-17T16:34:36.899Z,101348.38
2022-10-17T16:37:03.687Z,101347.34
2022-10-17T16:39:30.270Z,101348.94
2022-10-17T16:41:58.590Z,101350.91
2022-10-17T16:44:25.496Z,101346.44
2022-10-17T16:46:51.962Z,101345.06
2022-10-17T16:49:18.495Z,101348.38
2022-10-17T16:51:45.041Z,101358.53
2022-10-17T16:54:11.573Z,101363.00
2022-10-17T16:56:38.057Z,101361.34
2022-10-17T16:59:04.634Z,101360.66
2022-10-17T17:01:31.180Z,101370.34
2022-10-17T17:03:58.371Z,101370.25
2022-10-17T17:06:27.364Z,101373.63
2022-10-17T17:08:55.151Z,101375.47
2022-10-17T17:11:24.386Z,101379.34
2022-10-17T17:13:50.928Z,101382.03
2022-10-17T17:16:21.375Z,101384.25
2022-10-17T17:18:51.343Z,101386.06
2022-10-17T17:21:17.862Z,101391.13
2022-10-17T17:23:44.532Z,101386.16
2022-10-17T17:26:19.357Z,101388.94
2022-10-17T17:28:46.867Z,101394.13
2022-10-17T17:31:19.154Z,101392.22
2022-10-17T17:33:46.758Z,101397.81
2022-10-17T17:36:19.345Z,101402.22
2022-10-17T17:38:46.985Z,101401.16
2022-10-17T17:41:18.565Z,101403.63
2022-10-17T17:43:46.576Z,101400.63
2022-10-17T17:46:14.503Z,101404.94
2022-10-17T17:48:42.141Z,101398.34
2022-10-17T17:51:10.343Z,101399.34
2022-10-17T17:53:37.860Z,101405.13
2022-10-17T17:56:27.813Z,101409.91
2022-10-17T17:59:02.422Z,101409.13
2022-10-17T18:01:32.109Z,101411.81
2022-10-17T18:03:59.245Z,101413.22
2022-10-17T18:06:26.813Z,101413.91
2022-10-17T18:08:56.669Z,101410.97
2022-10-17T18:11:23.559Z,101416.78
2022-10-17T18:13:57.662Z,101423.81
2022-10-17T18:16:25.459Z,101417.22
2022-10-17T18:18:52.054Z,101427.72
2022-10-17T18:21:18.835Z,101423.19
2022-10-17T18:23:47.804Z,101422.81
2022-10-17T18:26:14.945Z,101424.56
2022-10-17T18:28:43.102Z,101429.41
2022-10-17T18:31:24.228Z,101432.19
2022-10-17T18:33:52.829Z,101433.50
2022-10-17T18:36:20.113Z,101442.56
2022-10-17T18:38:46.680Z,101441.16
2022-10-17T18:41:24.704Z,101445.78
2022-10-17T18:43:53.174Z,101451.28
2022-10-17T18:46:23.164Z,101441.50
2022-10-17T18:48:50.558Z,101445.69
2022-10-17T18:51:19.816Z,101444.22
2022-10-17T18:53:49.569Z,101446.50
2022-10-17T18:56:17.446Z,101443.78
2022-10-17T18:58:44.034Z,101447.00
2022-10-17T19:01:15.420Z,101450.91
2022-10-17T19:03:43.548Z,101458.25
2022-10-17T19:06:12.186Z,101451.75
2022-10-17T19:08:39.485Z,101454.44
2022-10-17T19:11:28.962Z,101441.22
2022-10-17T19:14:00.449Z,101446.91
2022-10-17T19:16:33.299Z,101453.91
2022-10-17T19:19:03.274Z,101446.13
2022-10-17T19:21:29.783Z,101447.59
2022-10-17T19:23:58.798Z,101436.22
2022-10-17T19:26:26.719Z,101443.91
2022-10-17T19:28:53.939Z,101450.47
2022-10-17T19:31:26.563Z,101436.31
2022-10-17T19:33:54.920Z,101435.41
2022-10-17T19:36:23.579Z,101438.06
2022-10-17T19:38:54.773Z,101434.97
2022-10-17T19:41:22.598Z,101442.16
2022-10-17T19:43:49.248Z,101433.31
2022-10-17T19:46:18.577Z,101425.94
2022-10-17T19:48:45.608Z,101433.97
2022-10-17T19:51:14.360Z,101434.50
2022-10-17T19:53:41.980Z,101423.41
2022-10-17T19:56:09.367Z,101431.78
2022-10-17T19:58:43.613Z,101439.50
2022-10-17T20:01:12.217Z,101436.13
2022-10-17T20:03:38.839Z,101437.63
2022-10-17T20:06:05.765Z,101426.94
2022-10-17T20:08:32.263Z,101432.28
2022-10-17T20:11:03.548Z,101431.63
2022-10-17T20:13:30.147Z,101428.50
2022-10-17T20:15:57.954Z,101422.69
2022-10-17T20:18:25.617Z,101425.44
2022-10-17T20:20:52.250Z,101437.72
2022-10-17T20:23:18.766Z,101437.28
2022-10-17T20:25:45.404Z,101428.06
2022-10-17T20:28:11.884Z,101429.31
2022-10-17T20:30:43.438Z,101442.25
2022-10-17T20:33:10.165Z,101444.66
2022-10-17T20:35:41.273Z,101444.66
2022-10-17T20:38:07.830Z,101449.19
2022-10-17T20:40:35.613Z,101461.41
2022-10-17T20:43:05.633Z,101453.19
2022-10-17T20:45:50.378Z,101460.72
2022-10-17T20:48:17.712Z,101459.97
2022-10-17T20:50:44.466Z,101445.03
2022-10-17T20:53:35.309Z,101451.63
2022-10-17T20:56:20.195Z,101451.56
2022-10-17T20:58:51.428Z,101457.69
2022-10-17T21:01:17.937Z,101458.09
2022-10-17T21:03:46.562Z,101463.22
2022-10-17T21:06:13.876Z,101457.78
2022-10-17T21:08:40.458Z,101466.66
2022-10-17T21:11:16.657Z,101459.91
2022-10-17T21:13:43.642Z,101467.72
2022-10-17T21:16:17.677Z,101464.69
2022-10-17T21:18:44.560Z,101463.91
2022-10-17T21:21:21.386Z,101459.31
2022-10-17T21:23:49.856Z,101466.00
2022-10-17T21:26:17.569Z,101467.16
2022-10-17T21:28:45.178Z,101459.97
2022-10-17T21:31:23.662Z,101461.97
2022-10-17T21:33:55.972Z,101458.59
2022-10-17T21:36:23.638Z,101454.81
2022-10-17T21:38:53.023Z,101449.41
2022-10-17T21:41:21.743Z,101463.22
2022-10-17T21:43:52.525Z,101466.81
2022-10-17T21:46:19.601Z,101459.31
2022-10-17T21:48:47.859Z,101462.44
2022-10-17T21:51:16.875Z,101463.22
2022-10-17T21:53:43.696Z,101463.28
2022-10-17T21:56:16.328Z,101455.19
2022-10-17T21:58:43.603Z,101451.75
2022-10-17T22:01:13.449Z,101457.13
2022-10-17T22:03:45.869Z,101453.28
2022-10-17T22:09:20.957Z,101454.91
2022-10-17T22:11:49.835Z,101461.06
2022-10-17T22:14:18.810Z,101454.47
2022-10-17T22:16:46.607Z,101454.91
2022-10-17T22:19:16.381Z,101457.94
2022-10-17T22:21:42.946Z,101452.53
2022-10-17T22:24:13.908Z,101452.50
2022-10-17T22:26:41.416Z,101452.50
2022-10-17T22:29:08.718Z,101446.75
2022-10-17T22:31:37.307Z,101451.75
2022-10-17T22:34:05.463Z,101442.50
2022-10-17T22:36:32.801Z,101448.31
2022-10-17T22:38:59.339Z,101437.56
2022-10-17T22:41:25.936Z,101437.56
2022-10-17T22:43:53.060Z,101437.22
2022-10-17T22:46:19.578Z,101439.09
2022-10-17T22:48:46.181Z,101443.31
2022-10-17T22:51:17.288Z,101445.59
2022-10-17T22:53:44.233Z,101444.47
2022-10-17T22:56:14.419Z,101439.50
2022-10-17T22:58:42.918Z,101432.94
2022-10-17T23:01:14.291Z,101434.84
2022-10-17T23:03:41.278Z,101429.84
2022-10-17T23:06:09.965Z,101424.09
2022-10-17T23:08:37.024Z,101426.44
2022-10-17T23:11:03.762Z,101428.38
2022-10-17T23:13:30.299Z,101421.06
2022-10-17T23:16:00.353Z,101421.06
2022-10-17T23:18:27.620Z,101422.22
2022-10-17T23:20:54.478Z,101420.25
2022-10-17T23:23:21.927Z,101421.75
2022-10-17T23:25:49.379Z,101437.97
2022-10-17T23:28:16.392Z,101438.78
2022-10-17T23:30:45.539Z,101437.97
2022-10-17T23:33:13.135Z,101431.47
2022-10-17T23:35:40.686Z,101431.88
2022-10-17T23:38:07.354Z,101429.56
2022-10-17T23:40:35.235Z,101428.00
2022-10-17T23:43:05.606Z,101429.47
2022-10-17T23:45:35.931Z,101425.22
2022-10-17T23:48:04.810Z,101434.16
2022-10-17T23:50:31.301Z,101433.78
2022-10-17T23:52:57.763Z,101431.88
2022-10-17T23:55:24.244Z,101433.41
2022-10-17T23:57:50.689Z,101431.91
